Roland, IA

6:32 PM CST on December 20, 2014 (GMT -0600)
Ames Municipal | Change Station
CLOSE
Current Station
Airport
Location: Ames,
Elevation: 955 ft
Nearby Weather Stations

Elev 955 ft 41.99 °N, 93.62 °W | Updated 39 minutes ago

Fog
Fog
33 °F
Feels Like 28 °F
N
6
Wind Variable Wind from SSE

Today
High -- | Low -- °F
--% Chance of Precip.
Yesterday
High -- | Low -- °F
Precip. -- in
7:38 AM 4:44 PM
Waning Crescent, 1% visible
Pressure 30.15 in
Visibility 1.2 miles
Clouds Overcast 200 ft
Windchill 28 °F
Dew Point 32 °F
Humidity 96%
Rainfall 0.00 in
Snow Depth Not available.
UV 0 out of 12
Pollen .10 out of 12
Air Quality Not available.
Flu Activity Not available.
METAR KAMW 202353Z AUTO 15005KT 1 1/4SM BR OVC002 01/00 A3013 RMK AO2 SLP210 T00060000 10006 20000 53001

More Conditions Fewer Conditions

Pressure 30.15 in
Visibility 1.2 miles
Clouds Overcast 200 ft
Windchill 28 °F
Dew Point 32 °F
Humidity 96%
Rainfall 0.00 in
Snow Depth Not available.
UV 0 out of 12
Pollen .10 out of 12
Air Quality Not available.
Flu Activity Not available.
METAR KAMW 202353Z AUTO 15005KT 1 1/4SM BR OVC002 01/00 A3013 RMK AO2 SLP210 T00060000 10006 20000 53001

More Conditions Fewer Conditions

10-Day Weather Forecast

Almanac

Astronomy

Dec. 20, 2014 Rise Set
Actual Time
Civil Twilight
Nautical Twilight
Astronomical Twilight
Moon
Length of Visible Light
Length of Day
Tomorrow will be .
, % of the Moon is Illuminated

Today's Extremes

State Highs State Lows

Community

WunderPhotos

Upload Photos

1,779,326 photos uploaded!

WunderBlogs® & News

Nearby

Air Quality

  Air Quality AQ Index Pollutant
Not available.

Snow Depth

Station Depth Elevation

Earthquake Activity

City Distance Mag. Time & Date
Minimum magnitude displayed is 2.5.

Coastal Water Temperatures

Place Temperature

Nearby Weather Stations